createdAt,value
2023-01-18T00:03:34.961Z,7.03
2023-01-18T00:08:38.619Z,7.90
2023-01-18T00:13:40.189Z,6.97
2023-01-18T00:18:42.495Z,6.85
2023-01-18T00:23:43.984Z,5.68
2023-01-18T00:28:45.804Z,6.38
2023-01-18T00:33:49.373Z,6.88
2023-01-18T00:38:51.927Z,6.00
2023-01-18T00:43:53.942Z,7.57
2023-01-18T00:48:57.332Z,6.57
2023-01-18T00:53:58.753Z,5.90
2023-01-18T00:59:00.156Z,6.72
2023-01-18T01:04:20.122Z,5.93
2023-01-18T01:09:24.687Z,6.65
2023-01-18T01:14:44.929Z,5.18
2023-01-18T01:20:04.755Z,6.30
2023-01-18T01:25:25.092Z,6.38
2023-01-18T01:30:26.580Z,6.82
2023-01-18T01:35:28.024Z,6.47
2023-01-18T01:40:29.429Z,6.57
2023-01-18T01:45:32.534Z,7.00
2023-01-18T01:50:39.322Z,7.03
2023-01-18T01:55:41.173Z,6.50
2023-01-18T02:00:43.833Z,6.60
2023-01-18T02:05:50.071Z,6.07
2023-01-18T02:10:52.638Z,6.35
2023-01-18T02:16:07.854Z,5.50
2023-01-18T02:21:17.206Z,5.68
2023-01-18T02:26:48.432Z,4.35
2023-01-18T02:32:19.781Z,4.32
2023-01-18T02:37:40.504Z,4.85
2023-01-18T02:43:03.548Z,4.90
2023-01-18T02:48:06.698Z,4.63
2023-01-18T02:53:13.519Z,5.15
2023-01-18T02:58:38.796Z,4.22
2023-01-18T03:03:44.080Z,5.57
2023-01-18T03:08:48.733Z,5.63
2023-01-18T03:13:56.821Z,6.10
2023-01-18T03:19:05.862Z,5.97
2023-01-18T03:24:10.108Z,4.97
2023-01-18T03:29:32.181Z,6.78
2023-01-18T03:34:52.107Z,5.05
2023-01-18T03:39:59.278Z,4.95
2023-01-18T03:45:11.299Z,5.13
2023-01-18T03:50:12.770Z,5.85
2023-01-18T03:55:24.259Z,5.68
2023-01-18T04:00:25.761Z,6.32
2023-01-18T04:05:27.257Z,8.40
2023-01-18T04:10:28.721Z,8.20
2023-01-18T04:15:30.143Z,6.90
2023-01-18T04:20:31.551Z,7.07
2023-01-18T04:25:32.970Z,9.35
2023-01-18T04:30:34.437Z,6.93
2023-01-18T04:35:36.271Z,6.50
2023-01-18T04:40:37.721Z,8.10
2023-01-18T04:45:39.264Z,7.60
2023-01-18T04:50:45.541Z,6.40
2023-01-18T04:55:47.240Z,8.02
2023-01-18T05:00:48.771Z,8.95
2023-01-18T05:05:50.248Z,7.35
2023-01-18T05:10:51.695Z,8.35
2023-01-18T05:15:53.129Z,8.07
2023-01-18T05:20:54.609Z,9.63
2023-01-18T05:25:57.820Z,8.55
2023-01-18T05:30:59.356Z,6.93
2023-01-18T05:36:00.785Z,7.35
2023-01-18T05:41:02.375Z,7.60
2023-01-18T05:46:05.372Z,7.20
2023-01-18T05:51:09.423Z,6.60
2023-01-18T05:56:10.955Z,5.82
2023-01-18T06:01:12.402Z,8.88
2023-01-18T06:06:13.877Z,6.68
2023-01-18T06:11:15.277Z,6.68
2023-01-18T06:16:16.735Z,7.40
2023-01-18T06:21:18.992Z,7.25
2023-01-18T06:26:20.402Z,6.55
2023-01-18T06:31:21.923Z,6.70
2023-01-18T06:36:23.442Z,8.00
2023-01-18T06:41:24.834Z,6.97
2023-01-18T06:46:26.333Z,7.18
2023-01-18T06:51:28.011Z,7.88
2023-01-18T06:56:29.528Z,6.60
2023-01-18T07:01:31.007Z,6.00
2023-01-18T07:06:32.521Z,8.27
2023-01-18T07:11:35.671Z,7.30
2023-01-18T07:16:37.890Z,7.95
2023-01-18T07:21:39.646Z,8.38
2023-01-18T07:26:41.096Z,7.22
2023-01-18T07:31:43.474Z,7.13
2023-01-18T07:36:45.049Z,7.38
2023-01-18T07:41:46.874Z,6.60
2023-01-18T07:46:48.330Z,6.75
2023-01-18T07:51:49.789Z,6.18
2023-01-18T07:56:51.495Z,6.53
2023-01-18T08:01:52.970Z,6.55
2023-01-18T08:06:57.618Z,6.07
2023-01-18T08:11:59.035Z,6.90
2023-01-18T08:17:00.441Z,7.65
2023-01-18T08:22:02.469Z,7.07
2023-01-18T08:27:03.888Z,7.00
2023-01-18T08:32:05.448Z,7.15
2023-01-18T08:37:06.869Z,8.63
2023-01-18T08:42:12.010Z,8.02
2023-01-18T08:47:15.583Z,9.30
2023-01-18T08:52:17.170Z,8.68
2023-01-18T08:57:18.605Z,9.07
2023-01-18T09:02:20.202Z,8.23
2023-01-18T09:07:21.693Z,7.57
2023-01-18T09:12:23.752Z,8.82
2023-01-18T09:17:25.694Z,7.88
2023-01-18T09:22:27.162Z,7.90
2023-01-18T09:27:28.676Z,7.93
2023-01-18T09:32:30.959Z,7.90
2023-01-18T09:37:32.844Z,8.07
2023-01-18T09:42:44.562Z,7.97
2023-01-18T09:47:48.438Z,7.47
2023-01-18T09:53:33.524Z,7.75
2023-01-18T09:58:56.370Z,7.55
2023-01-18T10:04:17.266Z,9.13
2023-01-18T10:09:41.776Z,8.05
2023-01-18T10:15:02.097Z,9.45
2023-01-18T10:20:14.183Z,7.88
2023-01-18T10:25:30.706Z,8.75
2023-01-18T10:30:50.724Z,7.88
2023-01-18T10:36:00.555Z,7.75
2023-01-18T10:41:03.135Z,9.45
2023-01-18T10:46:13.886Z,8.82
2023-01-18T10:51:37.001Z,8.98
2023-01-18T10:56:40.019Z,8.38
2023-01-18T11:01:54.989Z,8.38
2023-01-18T11:06:59.549Z,8.07
2023-01-18T11:12:34.841Z,9.32
2023-01-18T11:17:37.002Z,8.15
2023-01-18T11:22:56.459Z,8.25
2023-01-18T11:28:02.314Z,8.98
2023-01-18T11:33:03.950Z,9.27
2023-01-18T11:38:07.291Z,9.02
2023-01-18T11:43:22.967Z,7.85
2023-01-18T11:48:42.243Z,9.00
2023-01-18T11:54:26.580Z,8.02
2023-01-18T11:59:31.072Z,8.68
2023-01-18T12:04:44.397Z,7.88
2023-01-18T12:09:55.994Z,5.50
2023-01-18T12:15:03.848Z,5.75
2023-01-18T12:20:16.307Z,5.05
2023-01-18T12:25:42.302Z,4.40
2023-01-18T12:30:53.250Z,4.43
2023-01-18T12:36:00.739Z,4.38
2023-01-18T12:41:27.231Z,4.65
2023-01-18T12:46:38.473Z,4.50
2023-01-18T12:51:41.321Z,6.75
2023-01-18T12:56:48.518Z,7.75
2023-01-18T13:01:57.479Z,6.35
2023-01-18T13:07:07.090Z,6.00
2023-01-18T13:12:09.563Z,6.60
2023-01-18T13:17:17.164Z,6.35
2023-01-18T13:22:46.781Z,6.85
2023-01-18T13:28:23.753Z,6.70
2023-01-18T13:33:28.371Z,6.28
2023-01-18T13:38:40.978Z,6.05
2023-01-18T13:43:42.903Z,5.97
2023-01-18T13:48:50.976Z,6.53
2023-01-18T13:53:53.191Z,7.05
2023-01-18T13:58:58.503Z,6.20
2023-01-18T14:04:23.229Z,6.63
2023-01-18T14:09:47.066Z,5.90
2023-01-18T14:14:57.049Z,7.53
2023-01-18T14:20:18.269Z,6.30
2023-01-18T14:25:32.091Z,6.15
2023-01-18T14:30:36.488Z,5.40
2023-01-18T14:35:38.965Z,5.32
2023-01-18T14:40:44.829Z,4.78
2023-01-18T14:46:03.704Z,3.22
2023-01-18T14:51:07.005Z,2.90
2023-01-18T14:56:08.579Z,4.63
2023-01-18T15:01:30.028Z,5.57
2023-01-18T15:06:40.381Z,5.95
2023-01-18T15:11:44.310Z,10.15
2023-01-18T15:16:48.527Z,16.88
2023-01-18T15:21:50.680Z,22.77
2023-01-18T15:27:00.993Z,8.10
2023-01-18T15:32:13.347Z,8.15
2023-01-18T15:37:21.761Z,9.98
2023-01-18T15:42:42.964Z,8.40
2023-01-18T15:47:51.976Z,7.65
2023-01-18T15:53:14.237Z,8.85
2023-01-18T15:58:36.574Z,8.45
2023-01-18T16:03:46.007Z,7.35
2023-01-18T16:08:56.742Z,8.02
2023-01-18T16:14:00.489Z,8.40
2023-01-18T16:19:07.033Z,8.50
2023-01-18T16:24:41.081Z,7.90
2023-01-18T16:29:48.010Z,6.85
2023-01-18T16:34:49.655Z,7.10
2023-01-18T16:39:51.356Z,7.85
2023-01-18T16:44:53.917Z,7.82
2023-01-18T16:49:55.381Z,7.35
2023-01-18T16:54:56.790Z,10.98
2023-01-18T16:59:58.269Z,8.90
2023-01-18T17:04:59.663Z,19.40
2023-01-18T17:10:01.108Z,11.05
2023-01-18T17:15:02.529Z,9.00
2023-01-18T17:20:21.334Z,9.48
2023-01-18T17:25:24.113Z,12.95
2023-01-18T17:30:25.729Z,17.50
2023-01-18T17:35:28.509Z,13.70
2023-01-18T17:40:39.369Z,11.02
2023-01-18T17:45:48.398Z,11.50
2023-01-18T17:50:52.759Z,24.43
2023-01-18T17:55:55.019Z,17.15
2023-01-18T18:00:56.851Z,11.60
2023-01-18T18:05:59.621Z,10.25
2023-01-18T18:11:02.373Z,10.40
2023-01-18T18:16:04.661Z,9.68
2023-01-18T18:21:07.323Z,9.02
2023-01-18T18:26:09.091Z,8.98
2023-01-18T18:31:16.964Z,8.85
2023-01-18T18:36:18.549Z,9.07
2023-01-18T18:41:20.050Z,8.90
2023-01-18T18:46:21.604Z,8.90
2023-01-18T18:51:23.903Z,9.52
2023-01-18T18:56:25.321Z,8.75
2023-01-18T19:01:31.793Z,8.13
2023-01-18T19:06:33.416Z,9.15
2023-01-18T19:11:36.096Z,8.15
2023-01-18T19:16:39.190Z,8.45
2023-01-18T19:21:42.249Z,9.32
2023-01-18T19:26:44.924Z,9.07
2023-01-18T19:31:46.752Z,8.63
2023-01-18T19:36:49.101Z,9.30
2023-01-18T19:41:50.575Z,11.18
2023-01-18T19:46:52.939Z,11.10
2023-01-18T19:51:54.930Z,10.75
2023-01-18T19:56:56.525Z,9.85
2023-01-18T20:01:58.109Z,10.23
2023-01-18T20:07:01.719Z,9.70
2023-01-18T20:12:03.309Z,10.48
2023-01-18T20:17:04.716Z,9.23
2023-01-18T20:22:06.348Z,8.95
2023-01-18T20:27:15.764Z,8.05
2023-01-18T20:32:18.389Z,9.38
2023-01-18T20:37:20.076Z,8.85
2023-01-18T20:42:21.791Z,8.07
2023-01-18T20:47:23.235Z,7.55
2023-01-18T20:52:24.722Z,9.55
2023-01-18T20:57:30.229Z,9.73
2023-01-18T21:02:31.757Z,9.40
2023-01-18T21:07:33.199Z,8.75
2023-01-18T21:12:34.785Z,8.98
2023-01-18T21:17:36.527Z,8.30
2023-01-18T21:22:37.939Z,9.40
2023-01-18T21:27:43.178Z,9.43
2023-01-18T21:32:45.240Z,7.78
2023-01-18T21:37:46.646Z,7.28
2023-01-18T21:43:06.677Z,7.57
2023-01-18T21:48:08.730Z,8.95
2023-01-18T21:53:33.553Z,8.25
2023-01-18T21:58:52.956Z,7.43
2023-01-18T22:04:13.729Z,8.88
2023-01-18T22:09:15.786Z,7.72
2023-01-18T22:14:17.347Z,8.00
2023-01-18T22:19:19.190Z,13.55
2023-01-18T22:24:20.681Z,9.75
2023-01-18T22:29:22.104Z,8.48
2023-01-18T22:34:23.541Z,8.88
2023-01-18T22:39:25.368Z,8.25
2023-01-18T22:44:26.833Z,7.35
2023-01-18T22:49:28.232Z,8.70
2023-01-18T22:54:29.648Z,9.52
2023-01-18T22:59:31.288Z,8.25
2023-01-18T23:04:34.317Z,7.63
2023-01-18T23:09:35.810Z,7.57
2023-01-18T23:14:55.593Z,7.45
2023-01-18T23:19:56.985Z,7.15
2023-01-18T23:24:58.415Z,7.88
2023-01-18T23:29:59.882Z,8.23
2023-01-18T23:35:01.953Z,7.15
2023-01-18T23:40:22.645Z,8.00
2023-01-18T23:45:42.514Z,7.95
2023-01-18T23:51:02.514Z,7.75
2023-01-18T23:56:04.014Z,8.18
